Aérodrome :
LOGIN :

S'inscrire | Disclaimer

   EN    FR    IT 

 










Légende :    VFR   VFR Marginal   IFR   IFR Intensif   IFR Très Intensif
Visi : 
Plafond : 
>= 8 km
>= 3000ft
5 à 8 km
1000 à 3000 ft
1500m à 5 km
500 à 1000 ft
800 à 1500m
200 à 500 ft
< 800m
< 200 ft
Symboles :   Orages  Brouillard  Fortes neiges  Fortes précipitations  Vent > 20 kt
SIGMETs :   Divers  Orages  Givrage  Turbulence  Onde Orograph.  Cendres Volcan.







- Altitude de l'aérodrome : 425 ft
- Code IATA : DTM


EDLW - Dortmund

DERNIER METAR :
  • 172050Z 19008KT 9999 SCT046 02/00 Q1026

METARs EXPIRÉS :
  • 172020Z 19007KT CAVOK 02/M00 Q1026
  • 171950Z 19007KT CAVOK 03/M00 Q1026
  • 171920Z 21007KT 9999 BKN042 04/01 Q1026
  • 171850Z 22006KT 9999 BKN046 03/00 Q1026
  • 171820Z 20006KT CAVOK 01/M01 Q1025

TAF TAF EDLW
Valide du 17 à 18h jusqu'au 18 à 18h UTC


171700Z 1718/1818 21005KT 9999 SCT035
BECMG 1803/1806 23013KT
BECMG 1806/1808 24015G25KT
PROB30
TEMPO 1811/1815 26020G30KT
TEMPO 1815/1818 SHRA BKN015TCU
Pas de NOTAMs connus pour ce terrain.



MET'MAP, la Météo Aéronautique d'un coup d'oeil ! - Copyright ORBIFLY Décembre 2007 - Disclaimer

ORBIFLY MET'MAP TEAM :

Programmation & Développement : Alexandra Zaïnal
Conception & Développement : Baudouin d'Aumeries
Co-Programmation & Développement : Marc-Olivier Méhu
Soutien technique & logistique : Manuel Goepfert

Contact : metmap@orbifly.com




SOURCES & CREDITS :

   NOAA